Terminal Aerodrome Forecast
Issued by NWS Wilmington, OH

Home | Current Version | Previous Version | Text Only | Print | Product List | Glossary On
Versions: 1 2 3 4 5 6 7 8 9 10 11 12 13 14 15 16 17 18 19 20 21 22 23 24 25 26 27 28 29 30 31 32
850
FTUS41 KILN 281207 AAA
TAFCVG
TAF AMD
KCVG 281207Z 2812/2918 00000KT 4SM -RA BR BKN006 OVC012
      TEMPO 2812/2813 1SM TSRA SCT004 OVC015CB
     FM281300 04005KT P6SM VCSH SCT008 OVC018
      TEMPO 2813/2815 4SM -RA BKN008 OVC020
     FM281600 36010KT P6SM SCT035
     FM282200 01014G24KT P6SM SKC
     FM290400 02013KT P6SM SCT012
      TEMPO 2908/2912 BKN020=

USA.gov is the U.S. government's official web portal to all federal, state and local government web resources and services.